sensor_id;sensor_type;location;lat;lon;timestamp;P1;durP1;ratioP1;P2;durP2;ratioP2
69327;SDS011;56472;52.114;5.492;2023-08-30T00:01:11;1.48;;;1.40;;
69327;SDS011;56472;52.114;5.492;2023-08-30T00:03:39;1.42;;;1.33;;
69327;SDS011;56472;52.114;5.492;2023-08-30T00:06:06;1.20;;;1.20;;
69327;SDS011;56472;52.114;5.492;2023-08-30T00:08:33;2.28;;;1.27;;
69327;SDS011;56472;52.114;5.492;2023-08-30T00:11:01;1.25;;;1.25;;
69327;SDS011;56472;52.114;5.492;2023-08-30T00:13:31;1.63;;;1.52;;
69327;SDS011;56472;52.114;5.492;2023-08-30T00:16:00;1.33;;;1.33;;
69327;SDS011;56472;52.114;5.492;2023-08-30T00:18:29;1.60;;;1.50;;
69327;SDS011;56472;52.114;5.492;2023-08-30T00:20:57;1.40;;;1.27;;
69327;SDS011;56472;52.114;5.492;2023-08-30T00:23:24;4.72;;;1.45;;
69327;SDS011;56472;52.114;5.492;2023-08-30T00:25:51;1.63;;;1.50;;
69327;SDS011;56472;52.114;5.492;2023-08-30T00:28:18;1.20;;;1.20;;
69327;SDS011;56472;52.114;5.492;2023-08-30T00:30:45;1.42;;;1.42;;
69327;SDS011;56472;52.114;5.492;2023-08-30T00:33:13;1.60;;;1.50;;
69327;SDS011;56472;52.114;5.492;2023-08-30T00:35:39;2.05;;;1.38;;
69327;SDS011;56472;52.114;5.492;2023-08-30T00:38:06;1.50;;;1.40;;
69327;SDS011;56472;52.114;5.492;2023-08-30T00:40:38;1.60;;;1.50;;
69327;SDS011;56472;52.114;5.492;2023-08-30T00:43:07;1.25;;;1.25;;
69327;SDS011;56472;52.114;5.492;2023-08-30T00:45:37;1.50;;;1.40;;
69327;SDS011;56472;52.114;5.492;2023-08-30T00:48:06;1.48;;;1.38;;
69327;SDS011;56472;52.114;5.492;2023-08-30T00:50:34;1.80;;;1.70;;
69327;SDS011;56472;52.114;5.492;2023-08-30T00:53:02;1.42;;;1.33;;
69327;SDS011;56472;52.114;5.492;2023-08-30T00:55:35;2.17;;;1.60;;
69327;SDS011;56472;52.114;5.492;2023-08-30T00:58:03;1.42;;;1.33;;
69327;SDS011;56472;52.114;5.492;2023-08-30T01:00:31;1.50;;;1.40;;
69327;SDS011;56472;52.114;5.492;2023-08-30T01:02:59;2.92;;;1.63;;
69327;SDS011;56472;52.114;5.492;2023-08-30T01:05:26;1.45;;;1.40;;
69327;SDS011;56472;52.114;5.492;2023-08-30T01:07:54;1.88;;;1.77;;
69327;SDS011;56472;52.114;5.492;2023-08-30T01:10:33;1.90;;;1.73;;
69327;SDS011;56472;52.114;5.492;2023-08-30T01:13:09;1.38;;;1.38;;
69327;SDS011;56472;52.114;5.492;2023-08-30T01:15:38;1.55;;;1.45;;
69327;SDS011;56472;52.114;5.492;2023-08-30T01:18:07;1.40;;;1.40;;
69327;SDS011;56472;52.114;5.492;2023-08-30T01:20:37;1.25;;;1.20;;
69327;SDS011;56472;52.114;5.492;2023-08-30T01:23:06;1.33;;;1.33;;
69327;SDS011;56472;52.114;5.492;2023-08-30T01:28:28;1.50;;;1.40;;
69327;SDS011;56472;52.114;5.492;2023-08-30T01:30:58;1.63;;;1.52;;
69327;SDS011;56472;52.114;5.492;2023-08-30T01:33:26;2.47;;;1.45;;
69327;SDS011;56472;52.114;5.492;2023-08-30T01:35:58;1.60;;;1.50;;
69327;SDS011;56472;52.114;5.492;2023-08-30T01:38:26;1.48;;;1.48;;
69327;SDS011;56472;52.114;5.492;2023-08-30T01:40:54;1.60;;;1.50;;
69327;SDS011;56472;52.114;5.492;2023-08-30T01:43:23;1.45;;;1.45;;
69327;SDS011;56472;52.114;5.492;2023-08-30T01:45:53;1.23;;;1.23;;
69327;SDS011;56472;52.114;5.492;2023-08-30T01:48:22;1.70;;;1.60;;
69327;SDS011;56472;52.114;5.492;2023-08-30T01:50:51;1.63;;;1.30;;
69327;SDS011;56472;52.114;5.492;2023-08-30T01:53:21;1.60;;;1.50;;
69327;SDS011;56472;52.114;5.492;2023-08-30T01:55:48;1.50;;;1.50;;
69327;SDS011;56472;52.114;5.492;2023-08-30T01:58:15;1.50;;;1.38;;
69327;SDS011;56472;52.114;5.492;2023-08-30T02:00:42;1.42;;;1.33;;
69327;SDS011;56472;52.114;5.492;2023-08-30T02:03:10;1.73;;;1.65;;
69327;SDS011;56472;52.114;5.492;2023-08-30T02:05:43;1.90;;;1.75;;
69327;SDS011;56472;52.114;5.492;2023-08-30T02:08:22;1.48;;;1.48;;
69327;SDS011;56472;52.114;5.492;2023-08-30T02:10:55;2.00;;;1.85;;
69327;SDS011;56472;52.114;5.492;2023-08-30T02:13:28;1.83;;;1.73;;
69327;SDS011;56472;52.114;5.492;2023-08-30T02:15:56;1.83;;;1.65;;
69327;SDS011;56472;52.114;5.492;2023-08-30T02:18:27;1.63;;;1.58;;
69327;SDS011;56472;52.114;5.492;2023-08-30T02:20:56;1.80;;;1.70;;
69327;SDS011;56472;52.114;5.492;2023-08-30T02:23:24;1.73;;;1.63;;
69327;SDS011;56472;52.114;5.492;2023-08-30T02:25:56;1.60;;;1.50;;
69327;SDS011;56472;52.114;5.492;2023-08-30T02:28:23;1.83;;;1.73;;
69327;SDS011;56472;52.114;5.492;2023-08-30T02:30:52;2.10;;;1.63;;
69327;SDS011;56472;52.114;5.492;2023-08-30T02:33:20;1.92;;;1.83;;
69327;SDS011;56472;52.114;5.492;2023-08-30T02:35:47;1.65;;;1.55;;
69327;SDS011;56472;52.114;5.492;2023-08-30T02:38:14;1.73;;;1.63;;
69327;SDS011;56472;52.114;5.492;2023-08-30T02:40:41;1.90;;;1.80;;
69327;SDS011;56472;52.114;5.492;2023-08-30T02:43:08;2.22;;;2.13;;
69327;SDS011;56472;52.114;5.492;2023-08-30T02:45:35;1.65;;;1.55;;
69327;SDS011;56472;52.114;5.492;2023-08-30T02:48:02;2.75;;;1.90;;
69327;SDS011;56472;52.114;5.492;2023-08-30T02:50:30;1.90;;;1.80;;
69327;SDS011;56472;52.114;5.492;2023-08-30T02:52:57;2.25;;;2.05;;
69327;SDS011;56472;52.114;5.492;2023-08-30T02:55:24;2.10;;;2.00;;
69327;SDS011;56472;52.114;5.492;2023-08-30T02:57:51;2.33;;;2.13;;
69327;SDS011;56472;52.114;5.492;2023-08-30T03:00:18;2.40;;;2.20;;
69327;SDS011;56472;52.114;5.492;2023-08-30T03:02:47;2.10;;;2.00;;
69327;SDS011;56472;52.114;5.492;2023-08-30T03:05:16;2.08;;;1.98;;
69327;SDS011;56472;52.114;5.492;2023-08-30T03:07:43;2.13;;;2.03;;
69327;SDS011;56472;52.114;5.492;2023-08-30T03:10:11;3.80;;;1.92;;
69327;SDS011;56472;52.114;5.492;2023-08-30T03:12:38;2.33;;;2.13;;
69327;SDS011;56472;52.114;5.492;2023-08-30T03:15:06;2.15;;;2.05;;
69327;SDS011;56472;52.114;5.492;2023-08-30T03:17:34;2.55;;;2.35;;
69327;SDS011;56472;52.114;5.492;2023-08-30T03:20:02;2.80;;;2.60;;
69327;SDS011;56472;52.114;5.492;2023-08-30T03:22:33;2.30;;;2.20;;
69327;SDS011;56472;52.114;5.492;2023-08-30T03:25:00;2.20;;;2.10;;
69327;SDS011;56472;52.114;5.492;2023-08-30T03:27:30;2.15;;;1.95;;
69327;SDS011;56472;52.114;5.492;2023-08-30T03:29:57;2.45;;;2.30;;
69327;SDS011;56472;52.114;5.492;2023-08-30T03:32:24;2.65;;;2.45;;
69327;SDS011;56472;52.114;5.492;2023-08-30T03:34:51;2.00;;;1.90;;
69327;SDS011;56472;52.114;5.492;2023-08-30T03:37:17;2.30;;;2.20;;
69327;SDS011;56472;52.114;5.492;2023-08-30T03:39:44;2.28;;;2.17;;
69327;SDS011;56472;52.114;5.492;2023-08-30T03:42:11;2.20;;;2.10;;
69327;SDS011;56472;52.114;5.492;2023-08-30T03:44:38;2.20;;;2.10;;
69327;SDS011;56472;52.114;5.492;2023-08-30T03:47:06;3.05;;;2.40;;
69327;SDS011;56472;52.114;5.492;2023-08-30T03:49:34;4.10;;;2.53;;
69327;SDS011;56472;52.114;5.492;2023-08-30T03:52:01;2.45;;;2.25;;
69327;SDS011;56472;52.114;5.492;2023-08-30T03:54:28;2.22;;;2.13;;
69327;SDS011;56472;52.114;5.492;2023-08-30T03:56:55;2.20;;;2.10;;
69327;SDS011;56472;52.114;5.492;2023-08-30T03:59:22;2.63;;;2.50;;
69327;SDS011;56472;52.114;5.492;2023-08-30T04:01:53;2.72;;;2.53;;
69327;SDS011;56472;52.114;5.492;2023-08-30T04:04:20;2.67;;;2.47;;
69327;SDS011;56472;52.114;5.492;2023-08-30T04:06:47;4.18;;;2.42;;
69327;SDS011;56472;52.114;5.492;2023-08-30T04:09:15;2.60;;;2.40;;
69327;SDS011;56472;52.114;5.492;2023-08-30T04:11:43;2.88;;;2.60;;
69327;SDS011;56472;52.114;5.492;2023-08-30T04:14:10;2.22;;;2.13;;
69327;SDS011;56472;52.114;5.492;2023-08-30T04:16:37;2.60;;;2.40;;
69327;SDS011;56472;52.114;5.492;2023-08-30T04:19:06;3.05;;;2.75;;
69327;SDS011;56472;52.114;5.492;2023-08-30T04:21:33;2.60;;;2.50;;
69327;SDS011;56472;52.114;5.492;2023-08-30T04:24:00;2.90;;;2.70;;
69327;SDS011;56472;52.114;5.492;2023-08-30T04:26:27;2.95;;;2.75;;
69327;SDS011;56472;52.114;5.492;2023-08-30T04:28:55;3.47;;;2.47;;
69327;SDS011;56472;52.114;5.492;2023-08-30T04:31:22;2.80;;;2.60;;
69327;SDS011;56472;52.114;5.492;2023-08-30T04:33:49;2.80;;;2.60;;
69327;SDS011;56472;52.114;5.492;2023-08-30T04:36:19;2.67;;;2.47;;
69327;SDS011;56472;52.114;5.492;2023-08-30T04:38:46;3.13;;;2.83;;
69327;SDS011;56472;52.114;5.492;2023-08-30T04:41:26;2.42;;;2.33;;
69327;SDS011;56472;52.114;5.492;2023-08-30T04:43:53;2.78;;;2.58;;
69327;SDS011;56472;52.114;5.492;2023-08-30T04:46:20;3.90;;;2.70;;
69327;SDS011;56472;52.114;5.492;2023-08-30T04:48:47;2.97;;;2.63;;
69327;SDS011;56472;52.114;5.492;2023-08-30T04:51:15;3.05;;;2.75;;
69327;SDS011;56472;52.114;5.492;2023-08-30T04:53:42;2.67;;;2.45;;
69327;SDS011;56472;52.114;5.492;2023-08-30T04:56:13;2.67;;;2.47;;
69327;SDS011;56472;52.114;5.492;2023-08-30T04:58:40;2.88;;;2.67;;
69327;SDS011;56472;52.114;5.492;2023-08-30T05:01:09;3.33;;;2.85;;
69327;SDS011;56472;52.114;5.492;2023-08-30T05:03:41;4.20;;;2.70;;
69327;SDS011;56472;52.114;5.492;2023-08-30T05:06:11;2.40;;;2.30;;
69327;SDS011;56472;52.114;5.492;2023-08-30T05:08:42;2.95;;;2.65;;
69327;SDS011;56472;52.114;5.492;2023-08-30T05:11:09;3.15;;;2.72;;
69327;SDS011;56472;52.114;5.492;2023-08-30T05:13:37;3.83;;;2.70;;
69327;SDS011;56472;52.114;5.492;2023-08-30T05:16:04;2.80;;;2.60;;
69327;SDS011;56472;52.114;5.492;2023-08-30T05:18:32;2.78;;;2.58;;
69327;SDS011;56472;52.114;5.492;2023-08-30T05:21:00;3.05;;;2.58;;
69327;SDS011;56472;52.114;5.492;2023-08-30T05:23:30;3.10;;;2.90;;
69327;SDS011;56472;52.114;5.492;2023-08-30T05:25:57;3.08;;;2.80;;
69327;SDS011;56472;52.114;5.492;2023-08-30T05:28:25;2.78;;;2.50;;
69327;SDS011;56472;52.114;5.492;2023-08-30T05:30:52;2.58;;;2.38;;
69327;SDS011;56472;52.114;5.492;2023-08-30T05:33:29;2.83;;;2.63;;
69327;SDS011;56472;52.114;5.492;2023-08-30T05:36:21;2.47;;;2.33;;
69327;SDS011;56472;52.114;5.492;2023-08-30T05:39:06;3.20;;;3.00;;
69327;SDS011;56472;52.114;5.492;2023-08-30T05:41:36;2.70;;;2.60;;
69327;SDS011;56472;52.114;5.492;2023-08-30T05:44:03;3.03;;;2.72;;
69327;SDS011;56472;52.114;5.492;2023-08-30T05:46:30;3.00;;;2.80;;
69327;SDS011;56472;52.114;5.492;2023-08-30T05:48:58;2.40;;;2.30;;
69327;SDS011;56472;52.114;5.492;2023-08-30T05:51:28;3.13;;;2.75;;
69327;SDS011;56472;52.114;5.492;2023-08-30T05:53:56;7.18;;;2.78;;
69327;SDS011;56472;52.114;5.492;2023-08-30T05:56:22;6.10;;;2.67;;
69327;SDS011;56472;52.114;5.492;2023-08-30T05:58:50;6.53;;;2.70;;
69327;SDS011;56472;52.114;5.492;2023-08-30T06:01:17;2.80;;;2.60;;
69327;SDS011;56472;52.114;5.492;2023-08-30T06:03:46;3.17;;;2.22;;
69327;SDS011;56472;52.114;5.492;2023-08-30T06:06:13;3.00;;;2.70;;
69327;SDS011;56472;52.114;5.492;2023-08-30T06:08:41;6.57;;;2.70;;
69327;SDS011;56472;52.114;5.492;2023-08-30T06:11:08;3.95;;;2.47;;
69327;SDS011;56472;52.114;5.492;2023-08-30T06:13:35;3.40;;;2.40;;
69327;SDS011;56472;52.114;5.492;2023-08-30T06:16:02;4.25;;;2.47;;
69327;SDS011;56472;52.114;5.492;2023-08-30T06:18:32;4.03;;;2.65;;
69327;SDS011;56472;52.114;5.492;2023-08-30T06:20:59;2.63;;;2.40;;
69327;SDS011;56472;52.114;5.492;2023-08-30T06:23:26;2.63;;;2.40;;
69327;SDS011;56472;52.114;5.492;2023-08-30T06:25:56;2.95;;;2.50;;
69327;SDS011;56472;52.114;5.492;2023-08-30T06:28:24;3.05;;;2.58;;
69327;SDS011;56472;52.114;5.492;2023-08-30T06:30:51;2.70;;;2.50;;
69327;SDS011;56472;52.114;5.492;2023-08-30T06:33:18;2.60;;;2.35;;
69327;SDS011;56472;52.114;5.492;2023-08-30T06:35:47;2.38;;;2.25;;
69327;SDS011;56472;52.114;5.492;2023-08-30T06:38:15;2.83;;;2.63;;
69327;SDS011;56472;52.114;5.492;2023-08-30T06:40:45;4.25;;;2.33;;
69327;SDS011;56472;52.114;5.492;2023-08-30T06:43:12;2.65;;;2.45;;
69327;SDS011;56472;52.114;5.492;2023-08-30T06:45:39;3.90;;;2.50;;
69327;SDS011;56472;52.114;5.492;2023-08-30T06:48:07;6.82;;;2.63;;
69327;SDS011;56472;52.114;5.492;2023-08-30T06:50:35;2.50;;;2.40;;
69327;SDS011;56472;52.114;5.492;2023-08-30T06:53:02;3.67;;;2.47;;
69327;SDS011;56472;52.114;5.492;2023-08-30T06:55:29;2.53;;;2.42;;
69327;SDS011;56472;52.114;5.492;2023-08-30T06:57:58;2.50;;;2.20;;
69327;SDS011;56472;52.114;5.492;2023-08-30T07:00:25;2.67;;;2.47;;
69327;SDS011;56472;52.114;5.492;2023-08-30T07:02:52;2.40;;;2.30;;
69327;SDS011;56472;52.114;5.492;2023-08-30T07:05:19;2.50;;;2.30;;
69327;SDS011;56472;52.114;5.492;2023-08-30T07:07:46;2.47;;;2.38;;
69327;SDS011;56472;52.114;5.492;2023-08-30T07:10:13;2.30;;;2.20;;
69327;SDS011;56472;52.114;5.492;2023-08-30T07:12:40;2.35;;;2.10;;
69327;SDS011;56472;52.114;5.492;2023-08-30T07:15:07;4.32;;;2.40;;
69327;SDS011;56472;52.114;5.492;2023-08-30T07:17:35;2.47;;;2.28;;
69327;SDS011;56472;52.114;5.492;2023-08-30T07:20:19;3.05;;;2.33;;
69327;SDS011;56472;52.114;5.492;2023-08-30T07:22:46;2.20;;;2.10;;
69327;SDS011;56472;52.114;5.492;2023-08-30T07:25:13;2.70;;;2.50;;
69327;SDS011;56472;52.114;5.492;2023-08-30T07:27:40;2.60;;;2.40;;
69327;SDS011;56472;52.114;5.492;2023-08-30T07:30:07;4.85;;;2.65;;
69327;SDS011;56472;52.114;5.492;2023-08-30T07:32:35;2.10;;;1.98;;
69327;SDS011;56472;52.114;5.492;2023-08-30T07:35:03;2.00;;;1.85;;
69327;SDS011;56472;52.114;5.492;2023-08-30T07:37:30;1.92;;;1.77;;
69327;SDS011;56472;52.114;5.492;2023-08-30T07:39:57;2.22;;;2.08;;
69327;SDS011;56472;52.114;5.492;2023-08-30T07:42:24;2.80;;;2.00;;
69327;SDS011;56472;52.114;5.492;2023-08-30T07:44:51;2.10;;;2.00;;
69327;SDS011;56472;52.114;5.492;2023-08-30T07:47:18;2.10;;;2.00;;
69327;SDS011;56472;52.114;5.492;2023-08-30T07:49:45;2.10;;;2.00;;
69327;SDS011;56472;52.114;5.492;2023-08-30T07:52:12;2.30;;;2.13;;
69327;SDS011;56472;52.114;5.492;2023-08-30T07:54:40;1.98;;;1.80;;
69327;SDS011;56472;52.114;5.492;2023-08-30T07:57:07;2.88;;;2.03;;
69327;SDS011;56472;52.114;5.492;2023-08-30T07:59:35;2.17;;;2.08;;
69327;SDS011;56472;52.114;5.492;2023-08-30T08:02:03;3.03;;;2.05;;
69327;SDS011;56472;52.114;5.492;2023-08-30T08:04:34;2.30;;;2.00;;
69327;SDS011;56472;52.114;5.492;2023-08-30T08:07:01;1.88;;;1.70;;
69327;SDS011;56472;52.114;5.492;2023-08-30T08:09:30;6.10;;;2.03;;
69327;SDS011;56472;52.114;5.492;2023-08-30T08:11:58;2.35;;;1.90;;
69327;SDS011;56472;52.114;5.492;2023-08-30T08:14:25;2.58;;;1.70;;
69327;SDS011;56472;52.114;5.492;2023-08-30T08:16:53;4.50;;;2.00;;
69327;SDS011;56472;52.114;5.492;2023-08-30T08:19:20;5.63;;;2.45;;
69327;SDS011;56472;52.114;5.492;2023-08-30T08:21:51;2.05;;;1.85;;
69327;SDS011;56472;52.114;5.492;2023-08-30T08:24:20;2.88;;;2.00;;
69327;SDS011;56472;52.114;5.492;2023-08-30T08:26:47;3.78;;;1.75;;
69327;SDS011;56472;52.114;5.492;2023-08-30T08:29:14;3.92;;;1.90;;
69327;SDS011;56472;52.114;5.492;2023-08-30T08:31:41;2.13;;;2.03;;
69327;SDS011;56472;52.114;5.492;2023-08-30T08:34:09;2.00;;;1.90;;
69327;SDS011;56472;52.114;5.492;2023-08-30T08:36:38;5.38;;;2.33;;
69327;SDS011;56472;52.114;5.492;2023-08-30T08:39:06;2.05;;;1.90;;
69327;SDS011;56472;52.114;5.492;2023-08-30T08:41:42;3.22;;;2.50;;
69327;SDS011;56472;52.114;5.492;2023-08-30T08:44:10;2.50;;;2.30;;
69327;SDS011;56472;52.114;5.492;2023-08-30T08:46:39;2.75;;;2.30;;
69327;SDS011;56472;52.114;5.492;2023-08-30T08:49:14;4.53;;;2.30;;
69327;SDS011;56472;52.114;5.492;2023-08-30T08:51:43;8.95;;;2.60;;
69327;SDS011;56472;52.114;5.492;2023-08-30T08:54:11;7.80;;;2.35;;
69327;SDS011;56472;52.114;5.492;2023-08-30T08:56:39;3.65;;;2.35;;
69327;SDS011;56472;52.114;5.492;2023-08-30T08:59:07;11.18;;;2.40;;
69327;SDS011;56472;52.114;5.492;2023-08-30T09:01:38;3.63;;;2.33;;
69327;SDS011;56472;52.114;5.492;2023-08-30T09:04:09;2.20;;;1.77;;
69327;SDS011;56472;52.114;5.492;2023-08-30T09:06:37;6.78;;;2.72;;
69327;SDS011;56472;52.114;5.492;2023-08-30T09:09:07;8.30;;;2.42;;
69327;SDS011;56472;52.114;5.492;2023-08-30T09:11:35;5.93;;;2.00;;
69327;SDS011;56472;52.114;5.492;2023-08-30T09:14:16;5.20;;;2.17;;
69327;SDS011;56472;52.114;5.492;2023-08-30T09:16:54;5.03;;;2.22;;
69327;SDS011;56472;52.114;5.492;2023-08-30T09:19:21;3.10;;;1.85;;
69327;SDS011;56472;52.114;5.492;2023-08-30T09:21:52;2.55;;;1.90;;
69327;SDS011;56472;52.114;5.492;2023-08-30T09:24:23;4.43;;;1.80;;
69327;SDS011;56472;52.114;5.492;2023-08-30T09:26:51;2.30;;;2.10;;
69327;SDS011;56472;52.114;5.492;2023-08-30T09:29:20;6.78;;;1.90;;
69327;SDS011;56472;52.114;5.492;2023-08-30T09:31:53;2.20;;;1.65;;
69327;SDS011;56472;52.114;5.492;2023-08-30T09:34:24;2.00;;;1.80;;
69327;SDS011;56472;52.114;5.492;2023-08-30T09:39:19;1.83;;;1.70;;
69327;SDS011;56472;52.114;5.492;2023-08-30T09:41:47;8.80;;;1.70;;
69327;SDS011;56472;52.114;5.492;2023-08-30T09:44:19;4.07;;;1.77;;
69327;SDS011;56472;52.114;5.492;2023-08-30T09:46:54;2.95;;;1.80;;
69327;SDS011;56472;52.114;5.492;2023-08-30T09:49:23;3.50;;;1.80;;
69327;SDS011;56472;52.114;5.492;2023-08-30T09:51:52;2.25;;;1.73;;
69327;SDS011;56472;52.114;5.492;2023-08-30T09:54:21;5.43;;;2.00;;
69327;SDS011;56472;52.114;5.492;2023-08-30T09:56:52;3.00;;;1.48;;
69327;SDS011;56472;52.114;5.492;2023-08-30T09:59:22;1.60;;;1.50;;
69327;SDS011;56472;52.114;5.492;2023-08-30T10:01:50;2.90;;;1.67;;
69327;SDS011;56472;52.114;5.492;2023-08-30T10:04:20;2.45;;;1.40;;
69327;SDS011;56472;52.114;5.492;2023-08-30T10:06:49;4.07;;;1.73;;
69327;SDS011;56472;52.114;5.492;2023-08-30T10:09:16;6.50;;;1.92;;
69327;SDS011;56472;52.114;5.492;2023-08-30T10:11:46;2.30;;;1.80;;
69327;SDS011;56472;52.114;5.492;2023-08-30T10:14:14;1.52;;;1.42;;
69327;SDS011;56472;52.114;5.492;2023-08-30T10:16:48;2.58;;;1.52;;
69327;SDS011;56472;52.114;5.492;2023-08-30T10:19:17;3.42;;;1.50;;
69327;SDS011;56472;52.114;5.492;2023-08-30T10:22:05;5.57;;;1.42;;
69327;SDS011;56472;52.114;5.492;2023-08-30T10:24:42;3.53;;;1.52;;
69327;SDS011;56472;52.114;5.492;2023-08-30T10:27:37;1.95;;;1.35;;
69327;SDS011;56472;52.114;5.492;2023-08-30T10:30:07;1.65;;;1.55;;
69327;SDS011;56472;52.114;5.492;2023-08-30T10:32:39;6.53;;;1.73;;
69327;SDS011;56472;52.114;5.492;2023-08-30T10:35:11;4.65;;;1.85;;
69327;SDS011;56472;52.114;5.492;2023-08-30T10:40:19;1.60;;;1.50;;
69327;SDS011;56472;52.114;5.492;2023-08-30T10:43:04;1.40;;;1.30;;
69327;SDS011;56472;52.114;5.492;2023-08-30T10:45:31;1.92;;;1.60;;
69327;SDS011;56472;52.114;5.492;2023-08-30T10:47:58;5.30;;;1.58;;
69327;SDS011;56472;52.114;5.492;2023-08-30T10:50:30;1.92;;;1.40;;
69327;SDS011;56472;52.114;5.492;2023-08-30T10:55:25;1.48;;;1.38;;
69327;SDS011;56472;52.114;5.492;2023-08-30T10:57:59;8.02;;;1.20;;
69327;SDS011;56472;52.114;5.492;2023-08-30T11:00:29;11.95;;;1.55;;
69327;SDS011;56472;52.114;5.492;2023-08-30T11:02:57;1.58;;;1.48;;
69327;SDS011;56472;52.114;5.492;2023-08-30T11:05:25;1.38;;;1.27;;
69327;SDS011;56472;52.114;5.492;2023-08-30T11:07:52;6.00;;;1.40;;
69327;SDS011;56472;52.114;5.492;2023-08-30T11:10:21;1.40;;;1.30;;
69327;SDS011;56472;52.114;5.492;2023-08-30T11:12:48;1.20;;;1.10;;
69327;SDS011;56472;52.114;5.492;2023-08-30T11:15:16;2.25;;;1.50;;
69327;SDS011;56472;52.114;5.492;2023-08-30T11:17:44;2.22;;;1.33;;
69327;SDS011;56472;52.114;5.492;2023-08-30T11:20:12;1.30;;;1.20;;
69327;SDS011;56472;52.114;5.492;2023-08-30T11:22:45;1.63;;;1.20;;
69327;SDS011;56472;52.114;5.492;2023-08-30T11:25:13;1.50;;;1.27;;
69327;SDS011;56472;52.114;5.492;2023-08-30T11:27:42;5.00;;;1.50;;
69327;SDS011;56472;52.114;5.492;2023-08-30T11:30:10;1.40;;;1.30;;
69327;SDS011;56472;52.114;5.492;2023-08-30T11:32:38;2.67;;;1.30;;
69327;SDS011;56472;52.114;5.492;2023-08-30T11:35:07;1.20;;;1.10;;
69327;SDS011;56472;52.114;5.492;2023-08-30T11:37:34;1.27;;;0.98;;
69327;SDS011;56472;52.114;5.492;2023-08-30T11:40:02;4.68;;;1.20;;
69327;SDS011;56472;52.114;5.492;2023-08-30T11:42:32;2.25;;;1.08;;
69327;SDS011;56472;52.114;5.492;2023-08-30T11:44:59;5.28;;;1.40;;
69327;SDS011;56472;52.114;5.492;2023-08-30T11:47:27;2.67;;;1.30;;
69327;SDS011;56472;52.114;5.492;2023-08-30T11:49:55;1.90;;;1.10;;
69327;SDS011;56472;52.114;5.492;2023-08-30T11:52:23;1.10;;;1.00;;
69327;SDS011;56472;52.114;5.492;2023-08-30T11:54:51;2.00;;;1.20;;
69327;SDS011;56472;52.114;5.492;2023-08-30T11:57:19;1.27;;;1.00;;
69327;SDS011;56472;52.114;5.492;2023-08-30T11:59:47;1.30;;;1.27;;
69327;SDS011;56472;52.114;5.492;2023-08-30T12:02:15;1.98;;;1.20;;
69327;SDS011;56472;52.114;5.492;2023-08-30T12:04:44;6.78;;;1.25;;
69327;SDS011;56472;52.114;5.492;2023-08-30T12:07:22;3.80;;;1.25;;
69327;SDS011;56472;52.114;5.492;2023-08-30T12:09:50;2.08;;;1.30;;
69327;SDS011;56472;52.114;5.492;2023-08-30T12:12:17;4.03;;;1.33;;
69327;SDS011;56472;52.114;5.492;2023-08-30T12:14:44;1.60;;;1.23;;
69327;SDS011;56472;52.114;5.492;2023-08-30T12:17:11;2.80;;;1.40;;
69327;SDS011;56472;52.114;5.492;2023-08-30T12:19:39;1.50;;;1.38;;
69327;SDS011;56472;52.114;5.492;2023-08-30T12:22:06;1.55;;;1.42;;
69327;SDS011;56472;52.114;5.492;2023-08-30T12:24:43;1.52;;;1.35;;
69327;SDS011;56472;52.114;5.492;2023-08-30T12:27:11;1.40;;;1.30;;
69327;SDS011;56472;52.114;5.492;2023-08-30T12:29:41;6.53;;;1.52;;
69327;SDS011;56472;52.114;5.492;2023-08-30T12:32:08;1.40;;;1.30;;
69327;SDS011;56472;52.114;5.492;2023-08-30T12:34:35;1.70;;;1.27;;
69327;SDS011;56472;52.114;5.492;2023-08-30T12:37:03;2.92;;;1.30;;
69327;SDS011;56472;52.114;5.492;2023-08-30T12:39:31;1.10;;;1.00;;
69327;SDS011;56472;52.114;5.492;2023-08-30T12:41:58;3.83;;;1.27;;
69327;SDS011;56472;52.114;5.492;2023-08-30T12:44:25;1.05;;;1.00;;
69327;SDS011;56472;52.114;5.492;2023-08-30T12:46:53;2.70;;;1.17;;
69327;SDS011;56472;52.114;5.492;2023-08-30T12:49:20;3.00;;;1.15;;
69327;SDS011;56472;52.114;5.492;2023-08-30T12:51:47;3.28;;;1.00;;
69327;SDS011;56472;52.114;5.492;2023-08-30T12:54:14;1.42;;;1.33;;
69327;SDS011;56472;52.114;5.492;2023-08-30T12:56:41;1.65;;;1.15;;
69327;SDS011;56472;52.114;5.492;2023-08-30T12:59:08;1.13;;;1.10;;
69327;SDS011;56472;52.114;5.492;2023-08-30T13:01:35;1.15;;;1.15;;
69327;SDS011;56472;52.114;5.492;2023-08-30T13:04:06;1.50;;;1.20;;
69327;SDS011;56472;52.114;5.492;2023-08-30T13:06:34;1.35;;;1.00;;
69327;SDS011;56472;52.114;5.492;2023-08-30T13:09:01;3.47;;;1.30;;
69327;SDS011;56472;52.114;5.492;2023-08-30T13:11:28;2.28;;;1.20;;
69327;SDS011;56472;52.114;5.492;2023-08-30T13:13:56;1.77;;;0.90;;
69327;SDS011;56472;52.114;5.492;2023-08-30T13:16:24;3.05;;;1.23;;
69327;SDS011;56472;52.114;5.492;2023-08-30T13:18:51;5.65;;;1.35;;
69327;SDS011;56472;52.114;5.492;2023-08-30T13:21:18;2.03;;;1.05;;
69327;SDS011;56472;52.114;5.492;2023-08-30T13:23:53;2.03;;;1.15;;
69327;SDS011;56472;52.114;5.492;2023-08-30T13:26:20;2.88;;;0.90;;
69327;SDS011;56472;52.114;5.492;2023-08-30T13:28:46;4.03;;;1.25;;
69327;SDS011;56472;52.114;5.492;2023-08-30T13:31:13;3.22;;;1.00;;
69327;SDS011;56472;52.114;5.492;2023-08-30T13:33:40;1.08;;;1.00;;
69327;SDS011;56472;52.114;5.492;2023-08-30T13:36:07;3.00;;;1.10;;
69327;SDS011;56472;52.114;5.492;2023-08-30T13:38:34;3.17;;;0.93;;
69327;SDS011;56472;52.114;5.492;2023-08-30T13:41:01;5.32;;;1.25;;
69327;SDS011;56472;52.114;5.492;2023-08-30T13:43:30;2.40;;;1.30;;
69327;SDS011;56472;52.114;5.492;2023-08-30T13:45:58;2.13;;;1.10;;
69327;SDS011;56472;52.114;5.492;2023-08-30T13:48:25;5.10;;;1.25;;
69327;SDS011;56472;52.114;5.492;2023-08-30T13:50:52;3.35;;;1.30;;
69327;SDS011;56472;52.114;5.492;2023-08-30T13:53:19;2.25;;;0.98;;
69327;SDS011;56472;52.114;5.492;2023-08-30T13:55:46;1.55;;;1.27;;
69327;SDS011;56472;52.114;5.492;2023-08-30T13:58:15;1.42;;;1.00;;
69327;SDS011;56472;52.114;5.492;2023-08-30T14:00:43;1.83;;;1.00;;
69327;SDS011;56472;52.114;5.492;2023-08-30T14:03:11;2.65;;;1.02;;
69327;SDS011;56472;52.114;5.492;2023-08-30T14:05:39;1.27;;;1.10;;
69327;SDS011;56472;52.114;5.492;2023-08-30T14:08:09;1.17;;;1.08;;
69327;SDS011;56472;52.114;5.492;2023-08-30T14:10:36;1.45;;;0.93;;
69327;SDS011;56472;52.114;5.492;2023-08-30T14:13:03;2.17;;;1.17;;
69327;SDS011;56472;52.114;5.492;2023-08-30T14:15:31;3.17;;;1.13;;
69327;SDS011;56472;52.114;5.492;2023-08-30T14:17:58;1.00;;;0.90;;
69327;SDS011;56472;52.114;5.492;2023-08-30T14:20:27;1.60;;;1.10;;
69327;SDS011;56472;52.114;5.492;2023-08-30T14:22:54;1.50;;;0.93;;
69327;SDS011;56472;52.114;5.492;2023-08-30T14:25:21;2.05;;;1.02;;
69327;SDS011;56472;52.114;5.492;2023-08-30T14:27:48;1.10;;;1.10;;
69327;SDS011;56472;52.114;5.492;2023-08-30T14:30:15;0.88;;;0.85;;
69327;SDS011;56472;52.114;5.492;2023-08-30T14:32:42;1.15;;;1.02;;
69327;SDS011;56472;52.114;5.492;2023-08-30T14:35:09;2.15;;;1.10;;
69327;SDS011;56472;52.114;5.492;2023-08-30T14:37:37;0.98;;;0.90;;
69327;SDS011;56472;52.114;5.492;2023-08-30T14:40:06;2.22;;;1.30;;
69327;SDS011;56472;52.114;5.492;2023-08-30T14:42:33;1.70;;;0.98;;
69327;SDS011;56472;52.114;5.492;2023-08-30T14:45:00;3.42;;;1.05;;
69327;SDS011;56472;52.114;5.492;2023-08-30T14:47:29;2.97;;;1.10;;
69327;SDS011;56472;52.114;5.492;2023-08-30T14:49:57;4.68;;;1.00;;
69327;SDS011;56472;52.114;5.492;2023-08-30T14:52:24;0.80;;;0.80;;
69327;SDS011;56472;52.114;5.492;2023-08-30T14:54:51;2.22;;;0.70;;
69327;SDS011;56472;52.114;5.492;2023-08-30T14:57:17;2.42;;;1.05;;
69327;SDS011;56472;52.114;5.492;2023-08-30T14:59:45;0.95;;;0.95;;
69327;SDS011;56472;52.114;5.492;2023-08-30T15:02:13;1.58;;;1.00;;
69327;SDS011;56472;52.114;5.492;2023-08-30T15:04:40;8.18;;;1.50;;
69327;SDS011;56472;52.114;5.492;2023-08-30T15:07:07;1.52;;;1.20;;